createdAt,value
2018-10-06T00:00:26.618Z,5.53
2018-10-06T00:02:57.185Z,6.20
2018-10-06T00:05:27.473Z,5.40
2018-10-06T00:07:58.158Z,5.67
2018-10-06T00:10:28.922Z,5.73
2018-10-06T00:12:59.886Z,4.97
2018-10-06T00:15:30.508Z,5.60
2018-10-06T00:18:01.064Z,5.70
2018-10-06T00:20:31.782Z,5.90
2018-10-06T00:23:02.586Z,6.97
2018-10-06T00:25:32.904Z,6.00
2018-10-06T00:28:03.437Z,6.63
2018-10-06T00:30:33.796Z,5.80
2018-10-06T00:33:04.307Z,6.20
2018-10-06T00:35:34.869Z,6.30
2018-10-06T00:38:05.428Z,5.80
2018-10-06T00:40:35.993Z,6.00
2018-10-06T00:43:06.300Z,6.77
2018-10-06T00:45:36.528Z,6.03
2018-10-06T00:48:08.448Z,6.37
2018-10-06T00:50:38.977Z,5.73
2018-10-06T00:53:09.224Z,6.70
2018-10-06T00:55:39.821Z,6.30
2018-10-06T00:58:10.608Z,6.30
2018-10-06T01:00:41.134Z,5.53
2018-10-06T01:03:11.385Z,6.37
2018-10-06T01:05:41.912Z,7.40
2018-10-06T01:08:12.774Z,6.70
2018-10-06T01:10:43.557Z,7.27
2018-10-06T01:13:14.401Z,7.00
2018-10-06T01:15:44.936Z,7.17
2018-10-06T01:18:16.204Z,7.47
2018-10-06T01:20:46.988Z,7.13
2018-10-06T01:23:17.745Z,7.20
2018-10-06T01:25:48.992Z,6.70
2018-10-06T01:28:19.505Z,6.97
2018-10-06T01:30:50.022Z,6.97
2018-10-06T01:33:20.732Z,7.40
2018-10-06T01:35:51.280Z,7.60
2018-10-06T01:38:21.826Z,7.20
2018-10-06T01:40:52.083Z,7.53
2018-10-06T01:43:22.688Z,7.70
2018-10-06T01:45:53.162Z,7.20
2018-10-06T01:48:24.001Z,7.97
2018-10-06T01:50:54.732Z,7.40
2018-10-06T01:53:25.356Z,7.60
2018-10-06T01:55:57.692Z,7.70
2018-10-06T01:58:28.248Z,7.60
2018-10-06T02:00:59.719Z,8.10
2018-10-06T02:03:30.261Z,7.73
2018-10-06T02:06:00.533Z,8.40
2018-10-06T02:08:31.892Z,7.43
2018-10-06T02:11:02.753Z,9.03
2018-10-06T02:13:33.277Z,8.57
2018-10-06T02:16:03.800Z,8.53
2018-10-06T02:18:34.344Z,8.70
2018-10-06T02:21:04.960Z,8.07
2018-10-06T02:23:35.495Z,7.30
2018-10-06T02:26:05.946Z,8.83
2018-10-06T02:28:36.754Z,8.77
2018-10-06T02:31:07.608Z,9.23
2018-10-06T02:33:37.878Z,8.83
2018-10-06T02:36:08.205Z,8.87
2018-10-06T02:38:38.773Z,8.80
2018-10-06T02:41:09.123Z,9.27
2018-10-06T02:43:39.652Z,9.33
2018-10-06T02:46:10.292Z,9.53
2018-10-06T02:48:40.858Z,8.70
2018-10-06T02:51:11.433Z,9.17
2018-10-06T02:53:42.004Z,9.63
2018-10-06T02:56:13.030Z,10.03
2018-10-06T02:58:44.029Z,9.27
2018-10-06T03:01:14.742Z,9.03
2018-10-06T03:03:45.436Z,9.87
2018-10-06T03:06:16.004Z,8.30
2018-10-06T03:08:46.563Z,9.87
2018-10-06T03:11:17.178Z,9.07
2018-10-06T03:13:47.839Z,10.33
2018-10-06T03:16:18.397Z,10.40
2018-10-06T03:18:50.192Z,10.67
2018-10-06T03:21:20.646Z,10.13
2018-10-06T03:23:51.824Z,9.03
2018-10-06T03:26:22.636Z,10.40
2018-10-06T03:28:54.051Z,10.20
2018-10-06T03:31:24.568Z,10.10
2018-10-06T03:33:55.101Z,9.60
2018-10-06T03:36:25.648Z,9.60
2018-10-06T03:38:55.956Z,9.97
2018-10-06T03:41:26.460Z,11.37
2018-10-06T03:43:56.875Z,10.13
2018-10-06T03:46:27.433Z,11.60
2018-10-06T03:48:58.014Z,10.70
2018-10-06T03:51:28.273Z,11.20
2018-10-06T03:53:58.856Z,11.57
2018-10-06T03:56:29.277Z,10.90
2018-10-06T03:59:02.587Z,11.30
2018-10-06T04:01:33.114Z,12.00
2018-10-06T04:04:03.719Z,11.80
2018-10-06T04:06:34.277Z,11.50
2018-10-06T04:09:07.241Z,13.33
2018-10-06T04:11:38.352Z,11.90
2018-10-06T04:14:08.842Z,13.17
2018-10-06T04:16:39.085Z,13.00
2018-10-06T04:19:10.200Z,14.30
2018-10-06T04:21:45.921Z,12.50
2018-10-06T04:24:17.842Z,13.80
2018-10-06T04:26:49.189Z,13.20
2018-10-06T04:29:19.790Z,12.20
2018-10-06T04:31:50.196Z,12.07
2018-10-06T04:34:20.803Z,11.87
2018-10-06T04:36:51.329Z,12.90
2018-10-06T04:39:22.919Z,11.73
2018-10-06T04:41:53.216Z,12.53
2018-10-06T04:44:23.827Z,12.37
2018-10-06T04:46:54.351Z,12.60
2018-10-06T04:49:24.895Z,13.30
2018-10-06T04:51:55.531Z,13.07
2018-10-06T04:54:26.114Z,13.20
2018-10-06T04:56:56.633Z,12.27
2018-10-06T04:59:27.329Z,13.53
2018-10-06T05:01:57.939Z,13.00
2018-10-06T05:04:28.463Z,11.80
2018-10-06T05:07:00.384Z,12.60
2018-10-06T05:09:30.655Z,13.10
2018-10-06T05:12:01.177Z,13.20
2018-10-06T05:14:31.919Z,13.57
2018-10-06T05:17:02.981Z,14.10
2018-10-06T05:19:33.485Z,12.10
2018-10-06T05:22:04.022Z,13.43
2018-10-06T05:24:34.574Z,13.97
2018-10-06T05:27:05.281Z,13.70
2018-10-06T05:29:36.127Z,13.80
2018-10-06T05:32:07.067Z,14.90
2018-10-06T05:34:37.582Z,13.53
2018-10-06T05:37:08.294Z,13.93
2018-10-06T05:39:38.809Z,14.50
2018-10-06T05:42:09.499Z,13.47
2018-10-06T05:44:39.744Z,14.07
2018-10-06T05:47:10.297Z,13.33
2018-10-06T05:49:41.634Z,13.83
2018-10-06T05:52:12.485Z,15.70
2018-10-06T05:54:43.183Z,16.93
2018-10-06T05:57:13.683Z,13.50
2018-10-06T05:59:44.313Z,13.87
2018-10-06T06:02:14.976Z,16.20
2018-10-06T06:04:45.368Z,13.70
2018-10-06T06:07:15.757Z,13.60
2018-10-06T06:09:46.376Z,12.27
2018-10-06T06:12:16.704Z,12.20
2018-10-06T06:14:47.213Z,11.80
2018-10-06T06:17:17.773Z,11.87
2018-10-06T06:19:48.544Z,12.90
2018-10-06T06:22:19.228Z,11.63
2018-10-06T06:24:49.915Z,11.60
2018-10-06T06:27:20.178Z,12.57
2018-10-06T06:29:50.503Z,13.57
2018-10-06T06:32:21.116Z,11.80
2018-10-06T06:34:52.037Z,12.37
2018-10-06T06:37:23.016Z,13.03
2018-10-06T06:39:53.701Z,14.20
2018-10-06T06:42:24.407Z,13.30
2018-10-06T06:44:55.148Z,14.00
2018-10-06T06:47:25.961Z,12.30
2018-10-06T06:49:56.489Z,14.57
2018-10-06T06:52:27.300Z,12.63
2018-10-06T06:54:57.996Z,12.57
2018-10-06T06:57:28.805Z,12.40
2018-10-06T07:00:00.393Z,12.50
2018-10-06T07:02:30.839Z,18.50
2018-10-06T07:05:01.470Z,14.30
2018-10-06T07:07:31.721Z,12.97
2018-10-06T07:10:02.299Z,14.00
2018-10-06T07:12:32.839Z,13.40
2018-10-06T07:15:03.524Z,13.27
2018-10-06T07:17:33.746Z,13.60
2018-10-06T07:20:04.613Z,13.90
2018-10-06T07:22:35.205Z,12.90
2018-10-06T07:25:05.922Z,15.23
2018-10-06T07:27:37.001Z,12.73
2018-10-06T07:30:07.689Z,13.00
2018-10-06T07:32:38.233Z,12.40
2018-10-06T07:35:08.535Z,13.27
2018-10-06T07:37:38.801Z,11.93
2018-10-06T07:40:09.383Z,12.27
2018-10-06T07:42:39.879Z,12.80
2018-10-06T07:45:10.426Z,11.67
2018-10-06T07:47:41.180Z,11.53
2018-10-06T07:50:11.787Z,10.60
2018-10-06T07:52:42.408Z,12.77
2018-10-06T07:55:12.952Z,11.20
2018-10-06T07:57:43.539Z,12.13
2018-10-06T08:00:14.134Z,11.50
2018-10-06T08:02:44.751Z,12.23
2018-10-06T08:05:15.450Z,12.37
2018-10-06T08:07:45.969Z,10.40
2018-10-06T08:10:16.509Z,11.13
2018-10-06T08:12:46.751Z,12.33
2018-10-06T08:15:17.533Z,10.70
2018-10-06T08:17:48.368Z,11.80
2018-10-06T08:20:19.068Z,12.17
2018-10-06T08:22:49.304Z,12.23
2018-10-06T08:25:20.843Z,11.53
2018-10-06T08:27:51.407Z,10.50
2018-10-06T08:30:22.258Z,12.67
2018-10-06T08:32:52.806Z,11.30
2018-10-06T08:35:23.360Z,12.50
2018-10-06T08:37:54.156Z,11.73
2018-10-06T08:40:24.718Z,11.67
2018-10-06T08:42:55.644Z,10.60
2018-10-06T08:45:26.394Z,11.50
2018-10-06T08:47:56.923Z,11.27
2018-10-06T08:50:27.463Z,10.83
2018-10-06T08:52:58.047Z,11.73
2018-10-06T08:55:28.571Z,11.77
2018-10-06T08:57:59.338Z,11.00
2018-10-06T09:00:29.905Z,10.77
2018-10-06T09:03:00.156Z,11.60
2018-10-06T09:05:30.724Z,10.70
2018-10-06T09:08:01.257Z,11.37
2018-10-06T09:10:31.996Z,11.73
2018-10-06T09:13:02.562Z,12.30
2018-10-06T09:15:32.881Z,10.43
2018-10-06T09:18:03.426Z,10.60
2018-10-06T09:20:34.119Z,10.70
2018-10-06T09:23:04.907Z,11.10
2018-10-06T09:25:35.420Z,10.20
2018-10-06T09:28:06.563Z,11.43
2018-10-06T09:30:37.498Z,11.03
2018-10-06T09:33:08.251Z,10.20
2018-10-06T09:35:39.097Z,9.63
2018-10-06T09:38:09.635Z,10.30
2018-10-06T09:40:39.887Z,10.23
2018-10-06T09:43:10.427Z,9.80
2018-10-06T09:45:40.992Z,8.20
2018-10-06T09:48:11.591Z,9.83
2018-10-06T09:50:42.900Z,8.47
2018-10-06T09:53:13.439Z,8.90
2018-10-06T09:55:43.969Z,9.30
2018-10-06T09:58:14.500Z,9.40
2018-10-06T10:00:50.402Z,9.07
2018-10-06T10:03:26.332Z,9.60
2018-10-06T10:05:56.617Z,10.10
2018-10-06T10:08:27.044Z,9.53
2018-10-06T10:10:57.881Z,9.10
2018-10-06T10:13:28.410Z,9.43
2018-10-06T10:16:00.708Z,7.90
2018-10-06T10:18:31.261Z,8.80
2018-10-06T10:21:01.681Z,8.43
2018-10-06T10:23:32.355Z,7.03
2018-10-06T10:26:02.916Z,7.00
2018-10-06T10:28:34.054Z,6.53
2018-10-06T10:31:04.629Z,7.17
2018-10-06T10:33:35.157Z,6.73
2018-10-06T10:36:05.670Z,7.57
2018-10-06T10:38:36.252Z,7.27
2018-10-06T10:41:06.768Z,7.23
2018-10-06T10:43:38.018Z,6.87
2018-10-06T10:46:08.412Z,6.13
2018-10-06T10:48:39.215Z,7.60
2018-10-06T10:51:09.468Z,5.63
2018-10-06T10:53:40.505Z,5.90
2018-10-06T10:56:11.552Z,6.87
2018-10-06T10:58:42.330Z,6.73
2018-10-06T11:01:12.759Z,7.27
2018-10-06T11:03:43.211Z,6.53
2018-10-06T11:06:13.866Z,6.40
2018-10-06T11:08:44.968Z,5.70
2018-10-06T11:11:15.552Z,5.20
2018-10-06T11:13:46.239Z,5.37
2018-10-06T11:16:16.582Z,4.73
2018-10-06T11:18:47.153Z,5.27
2018-10-06T11:21:17.379Z,4.83
2018-10-06T11:23:48.167Z,5.60
2018-10-06T11:26:19.274Z,6.10
2018-10-06T11:28:49.800Z,6.17
2018-10-06T11:31:20.325Z,5.60
2018-10-06T11:33:50.930Z,5.00
2018-10-06T11:36:21.741Z,5.50
2018-10-06T11:38:52.582Z,4.97
2018-10-06T11:41:23.211Z,4.73
2018-10-06T11:43:53.860Z,5.23
2018-10-06T11:46:24.433Z,5.70
2018-10-06T11:48:54.664Z,5.43
2018-10-06T11:51:25.227Z,5.00
2018-10-06T11:53:56.049Z,4.93
2018-10-06T11:56:26.257Z,5.07
2018-10-06T11:58:56.858Z,4.63
2018-10-06T12:01:27.386Z,5.30
2018-10-06T12:03:58.221Z,5.50
2018-10-06T12:06:28.577Z,5.47
2018-10-06T12:09:02.840Z,5.37
2018-10-06T12:11:33.221Z,4.80
2018-10-06T12:14:03.792Z,5.20
2018-10-06T12:16:34.393Z,5.30
2018-10-06T12:19:05.058Z,5.70
2018-10-06T12:21:35.884Z,5.03
2018-10-06T12:24:06.757Z,4.27
2018-10-06T12:26:37.392Z,5.37
2018-10-06T12:29:07.965Z,5.70
2018-10-06T12:31:38.244Z,5.33
2018-10-06T12:34:09.124Z,4.33
2018-10-06T12:36:39.698Z,5.00
2018-10-06T12:39:10.501Z,5.63
2018-10-06T12:41:41.149Z,4.97
2018-10-06T12:44:11.880Z,4.70
2018-10-06T12:46:42.446Z,5.20
2018-10-06T12:49:12.979Z,5.17
2018-10-06T12:51:43.592Z,5.50
2018-10-06T12:54:14.230Z,5.13
2018-10-06T12:56:44.884Z,5.80
2018-10-06T12:59:15.551Z,5.37
2018-10-06T13:01:46.197Z,4.70
2018-10-06T13:04:16.780Z,4.80
2018-10-06T13:06:47.331Z,5.37
2018-10-06T13:09:17.995Z,6.10
2018-10-06T13:11:48.356Z,5.23
2018-10-06T13:14:18.798Z,6.10
2018-10-06T13:16:49.511Z,5.87
2018-10-06T13:19:19.934Z,5.80
2018-10-06T13:21:50.829Z,5.80
2018-10-06T13:24:21.130Z,6.93
2018-10-06T13:26:54.138Z,5.90
2018-10-06T13:29:24.821Z,5.70
2018-10-06T13:31:55.568Z,6.30
2018-10-06T13:34:26.295Z,6.80
2018-10-06T13:36:56.985Z,6.10
2018-10-06T13:39:27.545Z,6.73
2018-10-06T13:41:58.070Z,6.63
2018-10-06T13:44:28.599Z,6.10
2018-10-06T13:47:00.164Z,6.67
2018-10-06T13:49:30.950Z,5.60
2018-10-06T13:52:01.276Z,6.10
2018-10-06T13:54:31.637Z,6.17
2018-10-06T13:57:02.362Z,6.03
2018-10-06T13:59:33.346Z,5.50
2018-10-06T14:02:04.153Z,7.00
2018-10-06T14:04:34.533Z,5.80
2018-10-06T14:07:04.341Z,6.93
2018-10-06T14:09:37.337Z,6.03
2018-10-06T14:12:08.068Z,6.13
2018-10-06T14:14:39.021Z,6.10
2018-10-06T14:17:09.716Z,5.40
2018-10-06T14:19:39.960Z,6.00
2018-10-06T14:22:10.268Z,5.53
2018-10-06T14:24:40.724Z,5.70
2018-10-06T14:27:10.980Z,6.03
2018-10-06T14:29:41.244Z,5.93
2018-10-06T14:32:11.532Z,6.30
2018-10-06T14:34:42.297Z,5.83
2018-10-06T14:37:13.109Z,4.83
2018-10-06T14:39:44.054Z,5.77
2018-10-06T14:42:14.576Z,4.20
2018-10-06T14:44:45.132Z,5.27
2018-10-06T14:47:15.448Z,4.90
2018-10-06T14:49:46.366Z,5.60
2018-10-06T14:52:16.911Z,5.50
2018-10-06T14:54:47.742Z,5.40
2018-10-06T14:57:18.262Z,5.40
2018-10-06T14:59:49.151Z,5.73
2018-10-06T15:02:19.662Z,6.10
2018-10-06T15:04:50.171Z,5.90
2018-10-06T15:07:20.459Z,5.57
2018-10-06T15:09:51.237Z,5.43
2018-10-06T15:12:21.738Z,6.63
2018-10-06T15:14:52.303Z,5.47
2018-10-06T15:17:22.840Z,6.57
2018-10-06T15:19:53.376Z,5.90
2018-10-06T15:22:23.622Z,5.70
2018-10-06T15:24:54.431Z,6.37
2018-10-06T15:27:25.160Z,6.63
2018-10-06T15:29:55.891Z,5.60
2018-10-06T15:32:26.422Z,5.93
2018-10-06T15:34:57.008Z,7.07
2018-10-06T15:37:28.713Z,6.03
2018-10-06T15:39:59.313Z,6.80
2018-10-06T15:42:29.872Z,8.00
2018-10-06T15:45:00.790Z,7.53
2018-10-06T15:47:31.096Z,7.23
2018-10-06T15:50:01.869Z,7.60
2018-10-06T15:52:32.176Z,7.80
2018-10-06T15:55:02.716Z,7.60
2018-10-06T15:57:33.047Z,8.33
2018-10-06T16:00:03.672Z,8.27
2018-10-06T16:02:34.610Z,7.53
2018-10-06T16:05:05.462Z,7.60
2018-10-06T16:07:35.712Z,7.67
2018-10-06T16:10:06.837Z,8.33
2018-10-06T16:12:37.357Z,8.20
2018-10-06T16:15:07.942Z,7.80
2018-10-06T16:17:38.484Z,6.87
2018-10-06T16:20:08.729Z,8.50
2018-10-06T16:22:38.970Z,7.00
2018-10-06T16:25:09.523Z,8.00
2018-10-06T16:27:40.349Z,7.63
2018-10-06T16:30:11.083Z,7.60
2018-10-06T16:32:41.797Z,7.00
2018-10-06T16:35:12.309Z,8.00
2018-10-06T16:37:43.157Z,9.10
2018-10-06T16:40:13.981Z,8.00
2018-10-06T16:42:44.514Z,7.90
2018-10-06T16:45:15.262Z,7.50
2018-10-06T16:47:45.825Z,7.47
2018-10-06T16:50:16.108Z,7.60
2018-10-06T16:52:46.712Z,7.70
2018-10-06T16:55:17.496Z,6.47
2018-10-06T16:57:48.022Z,9.10
2018-10-06T17:00:19.018Z,8.40
2018-10-06T17:02:49.735Z,8.63
2018-10-06T17:05:20.230Z,8.23
2018-10-06T17:07:50.816Z,8.73
2018-10-06T17:10:21.599Z,7.20
2018-10-06T17:12:52.622Z,8.43
2018-10-06T17:15:23.805Z,7.53
2018-10-06T17:17:54.301Z,8.23
2018-10-06T17:20:24.816Z,7.57
2018-10-06T17:22:55.429Z,7.60
2018-10-06T17:25:25.984Z,7.60
2018-10-06T17:27:56.821Z,7.90
2018-10-06T17:30:27.382Z,8.80
2018-10-06T17:32:58.216Z,8.57
2018-10-06T17:35:28.738Z,8.40
2018-10-06T17:37:59.945Z,8.63
2018-10-06T17:40:30.455Z,7.50
2018-10-06T17:43:01.172Z,7.40
2018-10-06T17:45:31.511Z,8.57
2018-10-06T17:48:03.180Z,8.37
2018-10-06T17:50:33.931Z,7.67
2018-10-06T17:53:04.545Z,8.23
2018-10-06T17:55:35.143Z,8.63
2018-10-06T17:58:05.634Z,8.30
2018-10-06T18:00:36.650Z,8.47
2018-10-06T18:03:07.072Z,9.07
2018-10-06T18:05:37.312Z,8.30
2018-10-06T18:08:08.102Z,7.70
2018-10-06T18:10:38.912Z,8.67
2018-10-06T18:13:09.433Z,8.10
2018-10-06T18:15:41.414Z,8.20
2018-10-06T18:18:12.058Z,9.10
2018-10-06T18:20:42.446Z,8.23
2018-10-06T18:23:12.824Z,8.67
2018-10-06T18:25:43.664Z,8.10
2018-10-06T18:28:14.442Z,8.70
2018-10-06T18:30:44.988Z,7.60
2018-10-06T18:33:15.884Z,8.00
2018-10-06T18:35:46.525Z,8.03
2018-10-06T18:38:17.142Z,9.30
2018-10-06T18:40:47.408Z,7.40
2018-10-06T18:43:18.567Z,7.50
2018-10-06T18:45:50.473Z,8.20
2018-10-06T18:48:21.048Z,8.80
2018-10-06T18:50:51.708Z,8.73
2018-10-06T18:53:21.960Z,8.57
2018-10-06T18:55:52.754Z,8.30
2018-10-06T18:58:23.185Z,9.40
2018-10-06T19:00:53.808Z,8.27
2018-10-06T19:03:24.709Z,8.40
2018-10-06T19:05:55.367Z,9.37
2018-10-06T19:08:25.869Z,7.03
2018-10-06T19:10:56.887Z,7.20
2018-10-06T19:13:27.617Z,8.03
2018-10-06T19:15:58.249Z,8.43
2018-10-06T19:18:29.194Z,8.10
2018-10-06T19:21:00.056Z,7.40
2018-10-06T19:23:30.557Z,8.30
2018-10-06T19:26:04.108Z,7.30
2018-10-06T19:28:35.149Z,8.77
2018-10-06T19:31:06.314Z,7.70
2018-10-06T19:33:36.840Z,8.33
2018-10-06T19:36:07.680Z,7.80
2018-10-06T19:38:38.198Z,7.57
2018-10-06T19:41:08.480Z,6.67
2018-10-06T19:43:38.829Z,6.73
2018-10-06T19:46:09.920Z,6.70
2018-10-06T19:48:40.438Z,6.80
2018-10-06T19:51:11.063Z,7.07
2018-10-06T19:53:41.924Z,7.63
2018-10-06T19:56:12.530Z,6.57
2018-10-06T19:58:42.821Z,7.20
2018-10-06T20:01:13.529Z,7.00
2018-10-06T20:03:44.095Z,7.73
2018-10-06T20:06:14.655Z,8.93
2018-10-06T20:08:45.455Z,11.70
2018-10-06T20:11:16.591Z,13.13
2018-10-06T20:13:48.020Z,12.47
2018-10-06T20:16:19.589Z,8.60
2018-10-06T20:18:50.281Z,8.33
2018-10-06T20:21:21.360Z,6.73
2018-10-06T20:23:53.021Z,6.73
2018-10-06T20:26:24.455Z,8.00
2018-10-06T20:28:55.207Z,8.40
2018-10-06T20:31:25.813Z,7.70
2018-10-06T20:33:56.414Z,8.57
2018-10-06T20:36:27.168Z,7.70
2018-10-06T20:38:58.156Z,7.70
2018-10-06T20:41:28.998Z,7.67
2018-10-06T20:43:59.796Z,8.40
2018-10-06T20:46:30.453Z,7.10
2018-10-06T20:49:01.381Z,7.30
2018-10-06T20:51:31.688Z,8.47
2018-10-06T20:54:01.932Z,7.10
2018-10-06T20:56:41.850Z,7.67
2018-10-06T20:59:12.724Z,7.30
2018-10-06T21:01:43.256Z,8.70
2018-10-06T21:04:14.233Z,7.57
2018-10-06T21:06:45.121Z,7.20
2018-10-06T21:09:16.049Z,7.23
2018-10-06T21:11:46.889Z,7.80
2018-10-06T21:14:17.732Z,8.00
2018-10-06T21:16:48.286Z,7.20
2018-10-06T21:19:18.584Z,8.27
2018-10-06T21:21:49.128Z,7.60
2018-10-06T21:24:19.682Z,7.30
2018-10-06T21:26:54.034Z,6.80
2018-10-06T21:29:26.760Z,6.70
2018-10-06T21:32:00.055Z,6.30
2018-10-06T21:34:30.932Z,7.57
2018-10-06T21:37:01.710Z,7.67
2018-10-06T21:39:33.060Z,7.03
2018-10-06T21:42:04.072Z,7.63
2018-10-06T21:44:34.746Z,7.90
2018-10-06T21:47:06.392Z,7.97
2018-10-06T21:49:37.408Z,6.60
2018-10-06T21:52:08.090Z,7.20
2018-10-06T21:54:38.617Z,6.27
2018-10-06T21:57:09.316Z,6.80
2018-10-06T21:59:39.933Z,6.30
2018-10-06T22:02:10.252Z,6.97
2018-10-06T22:04:40.592Z,7.00
2018-10-06T22:07:11.143Z,7.20
2018-10-06T22:09:42.173Z,6.80
2018-10-06T22:12:12.476Z,6.60
2018-10-06T22:14:43.018Z,6.47
2018-10-06T22:17:13.616Z,6.13
2018-10-06T22:19:44.144Z,7.00
2018-10-06T22:22:14.721Z,6.63
2018-10-06T22:24:46.751Z,6.70
2018-10-06T22:27:17.863Z,6.80
2018-10-06T22:29:48.648Z,6.17
2018-10-06T22:32:18.942Z,7.73
2018-10-06T22:34:49.654Z,7.50
2018-10-06T22:37:20.375Z,8.33
2018-10-06T22:39:50.979Z,7.10
2018-10-06T22:42:21.269Z,7.60
2018-10-06T22:44:51.847Z,7.33
2018-10-06T22:47:22.402Z,9.10
2018-10-06T22:49:53.387Z,8.50
2018-10-06T22:52:23.986Z,8.20
2018-10-06T22:54:54.614Z,8.20
2018-10-06T22:57:25.202Z,8.40
2018-10-06T22:59:55.507Z,9.13
2018-10-06T23:02:26.012Z,7.60
2018-10-06T23:04:56.578Z,8.60
2018-10-06T23:07:26.952Z,8.40
2018-10-06T23:09:57.462Z,7.80
2018-10-06T23:12:27.767Z,8.23
2018-10-06T23:14:58.168Z,9.00
2018-10-06T23:17:28.712Z,8.87
2018-10-06T23:19:58.974Z,7.97
2018-10-06T23:22:29.517Z,8.53
2018-10-06T23:25:00.562Z,8.13
2018-10-06T23:27:31.782Z,8.23
2018-10-06T23:30:02.337Z,8.97
2018-10-06T23:32:32.882Z,8.20
2018-10-06T23:35:04.010Z,8.27
2018-10-06T23:37:34.512Z,8.47
2018-10-06T23:40:05.173Z,8.57
2018-10-06T23:42:35.728Z,13.03
2018-10-06T23:45:06.513Z,10.10
2018-10-06T23:47:37.157Z,9.20
2018-10-06T23:50:08.314Z,8.87
2018-10-06T23:52:38.570Z,8.37
2018-10-06T23:55:09.485Z,9.30
2018-10-06T23:57:40.039Z,8.00
